Archimede — IXZR — position and weather

sailwx.info

Track history (hours):
 
Tides and Currents Weather Stations Pressure Air Temp Water Temp Dewpoint Dewpoint Depression Visibility Wind Speed Wind Dir Waves Ship Positions

Archimede

Last reported at 2015-May-24 06:34 UTC. Time now 2015-May-24 07:12 UTC.
Position N 38°13' E 015°34'.

; draft 3.1 m.

Type: Passenger vessel. MMSI: 247054700.

Date/timePositionNaut miles runAvg speedWind from/ knotsBaromVisibWave heightAir tempDewpointWater temp
2015-May-24 06:34N 38°13' E 015°34'0 0.0
2015-May-24 05:33N 38°13' E 015°34'3 3.4
2015-May-24 04:33N 38°13' E 015°38'3 2.7
2015-May-24 03:33N 38°13' E 015°35'1 0.7
2015-May-24 02:33N 38°13' E 015°34'0 0.1
2015-May-24 01:33N 38°13' E 015°34'2 2.3
2015-May-24 00:33N 38°13' E 015°37'0 0.1
2015-May-23 23:33N 38°13' E 015°37'0 0.3
2015-May-23 22:33N 38°13' E 015°37'1 1.3
2015-May-23 21:33N 38°13' E 015°38'0 0.1
2015-May-23 20:33N 38°13' E 015°38'2 2.2
2015-May-23 19:33N 38°13' E 015°35'1 1.2
2015-May-23 18:33N 38°13' E 015°34'2 2.4
2015-May-23 17:33N 38°13' E 015°37'1 1.1
2015-May-23 16:33N 38°13' E 015°38'2 2.1
2015-May-23 15:33N 38°13' E 015°35'1 1.3
2015-May-23 14:33N 38°13' E 015°34'2 1.7
2015-May-23 13:33N 38°13' E 015°36'2 1.8
2015-May-23 12:34N 38°13' E 015°38'3 2.6
2015-May-23 11:34N 38°13' E 015°35'1 0.8
2015-May-23 10:33N 38°13' E 015°34'2 2.3
2015-May-23 09:34N 38°13' E 015°37'1 1.2
2015-May-23 08:33N 38°13' E 015°38'2 2.1
2015-May-23 07:34N 38°13' E 015°35'1 1.3
2015-May-23 06:34N 38°13' E 015°34'2 2.3
2015-May-23 05:34N 38°13' E 015°37'1 1.3
2015-May-23 04:34N 38°13' E 015°38'2 2.4
2015-May-23 03:33N 38°13' E 015°35'1 1.0
2015-May-23 02:34N 38°13' E 015°34'0 0.2
2015-May-23 01:33N 38°13' E 015°34'2 2.0
2015-May-23 00:33N 38°12' E 015°37'0 0.2
2015-May-22 23:34N 38°13' E 015°37'0 0.4
2015-May-22 22:33N 38°12' E 015°36'1 1.3
2015-May-22 21:34N 38°13' E 015°38'0 0.3
2015-May-22 20:33N 38°13' E 015°38'2 1.7
2015-May-22 19:34N 38°13' E 015°36'2 1.9
2015-May-22 18:33N 38°13' E 015°34'2 2.4
2015-May-22 17:33N 38°13' E 015°37'1 1.1
2015-May-22 16:33N 38°13' E 015°38'2 2.5
2015-May-22 15:34N 38°13' E 015°35'1 0.9
2015-May-22 14:34N 38°13' E 015°34'2 2.3
2015-May-22 13:33N 38°12' E 015°37'1 1.3
2015-May-22 12:34N 38°13' E 015°38'2 2.3
2015-May-22 11:33N 38°13' E 015°35'1 1.0
2015-May-22 10:33N 38°13' E 015°34'2 2.3
2015-May-22 09:33N 38°13' E 015°37'1 1.2
2015-May-22 08:33N 38°13' E 015°38'2 2.1
2015-May-22 07:33N 38°13' E 015°35'1 1.3
2015-May-22 06:33N 38°13' E 015°34'2 2.1
2015-May-22 05:34N 38°12' E 015°36'2 1.5
2015-May-22 04:33N 38°13' E 015°38'2 2.3
2015-May-22 03:33N 38°13' E 015°35'1 1.2
2015-May-22 02:34N 38°13' E 015°34'0 0.0
2015-May-22 01:34N 38°13' E 015°34'2 1.8
2015-May-22 00:33N 38°12' E 015°36'1 0.5
2015-May-21 23:33N 38°13' E 015°35'1 1.0
2015-May-21 22:33N 38°13' E 015°37'1 1.2
2015-May-21 21:33N 38°13' E 015°38'0 0.1
2015-May-21 20:33N 38°13' E 015°38'2 1.9
2015-May-21 19:33N 38°13' E 015°36'2 1.6
2015-May-21 18:33N 38°13' E 015°34'2 2.3
2015-May-21 17:33N 38°13' E 015°37'1 1.2
2015-May-21 16:33N 38°13' E 015°38'2 1.7
2015-May-21 15:33N 38°13' E 015°36'2 1.7
2015-May-21 14:33N 38°13' E 015°34'2 2.3
2015-May-21 13:33N 38°13' E 015°37'1 1.3
2015-May-21 12:33N 38°13' E 015°38'3 2.7
2015-May-21 11:33N 38°13' E 015°35'1 0.7
2015-May-21 10:33N 38°13' E 015°34'2 2.3
2015-May-21 09:33N 38°13' E 015°37'1 1.2
2015-May-21 08:33N 38°13' E 015°38'2 2.3
2015-May-21 07:33N 38°13' E 015°35'1 1.0
2015-May-21 06:33N 38°13' E 015°34'2 2.4
2015-May-21 05:33N 38°13' E 015°37'1 1.0
2015-May-21 04:33N 38°13' E 015°38'2 2.4
2015-May-21 03:33N 38°13' E 015°35'1 1.0
2015-May-21 02:33N 38°13' E 015°34'1 0.6
2015-May-21 01:33N 38°13' E 015°35'1 1.4
2015-May-21 00:33N 38°13' E 015°36'0 0.1
2015-May-20 23:33N 38°13' E 015°36'0 0.4
2015-May-20 22:33N 38°13' E 015°37'1 1.2
2015-May-20 21:34N 38°13' E 015°38'0 0.1
2015-May-20 20:33N 38°13' E 015°38'2 1.9
2015-May-20 19:33N 38°13' E 015°36'2 1.6
2015-May-20 18:34N 38°13' E 015°34'2 2.4
2015-May-20 17:33N 38°13' E 015°37'1 1.1
2015-May-20 16:33N 38°13' E 015°38'2 2.2
2015-May-20 15:33N 38°13' E 015°35'2 0.0
2015-May-18 19:19N 38°13' E 015°38'0 0.0
2015-May-18 16:33N 38°13' E 015°38'0 0.0
2015-May-18 15:22N 38°13' E 015°38'0 0.0
2015-May-18 12:33N 38°13' E 015°38'1 1.2
2015-May-18 11:29N 38°13' E 015°36'1 0.4
2015-May-18 08:33N 38°13' E 015°38'1 0.7
2015-May-18 07:26N 38°14' E 015°37'1 0.2
2015-May-18 04:20N 38°13' E 015°38'0 0.2
2015-May-18 03:24N 38°13' E 015°38'0 0.1
2015-May-18 02:12N 38°14' E 015°38'0 0.1
2015-May-18 00:20N 38°13' E 015°38'0 0.0
2015-May-17 23:12N 38°13' E 015°38'0 0.0
2015-May-17 20:33N 38°13' E 015°38'1 0.7
2015-May-17 19:26N 38°13' E 015°37'0 0.3
2015-May-17 18:03N 38°14' E 015°38'1 0.3
2015-May-17 16:18N 38°13' E 015°37'1 1.3
2015-May-17 15:31N 38°13' E 015°36'1 0.2
2015-May-17 07:20N 38°13' E 015°38'0 0.0
2015-May-17 04:20N 38°13' E 015°38'0 0.1
2015-May-17 03:24N 38°13' E 015°38'0 0.2
2015-May-17 02:15N 38°14' E 015°38'0 0.4
2015-May-17 01:05N 38°13' E 015°37'0 0.2
2015-May-16 22:32N 38°13' E 015°37'1 0.6
2015-May-16 21:31N 38°13' E 015°38'0 0.1
2015-May-16 20:33N 38°13' E 015°38'1 0.4
2015-May-16 19:25N 38°13' E 015°37'1 0.2
2015-May-16 16:33N 38°13' E 015°38'0 0.1
2015-May-16 15:21N 38°13' E 015°38'0 0.0
2015-May-16 12:33N 38°13' E 015°38'1 0.6
2015-May-16 11:25N 38°13' E 015°37'1 0.2
2015-May-16 08:32N 38°13' E 015°38'0 0.0
2015-May-15 16:34N 38°13' E 015°38'0 0.2
2015-May-15 15:22N 38°13' E 015°38'1 0.1
2015-May-15 06:07N 38°14' E 015°37'1 0.1
2015-May-14 16:33N 38°13' E 015°38'0 0.0
2015-May-14 15:19N 38°13' E 015°38'0 0.0
2015-May-14 08:23N 38°13' E 015°38'0 0.1
2015-May-14 07:11N 38°13' E 015°38'  
Track history (hours):
 
Tides and Currents Weather Stations Pressure Air Temp Water Temp Dewpoint Dewpoint Depression Visibility Wind Speed Wind Dir Waves Ship Positions

Archimede

Last reported at 2015-May-24 06:34 UTC. Time now 2015-May-24 07:12 UTC.
Position N 38°13' E 015°34'.

; draft 3.1 m.

Type: Passenger vessel. MMSI: 247054700.

Date/timePositionNaut miles runAvg speedWind from/ knotsBaromVisibWave heightAir tempDewpointWater temp
2015-May-24 06:34N 38°13' E 015°34'0 0.0
2015-May-24 05:33N 38°13' E 015°34'3 3.4
2015-May-24 04:33N 38°13' E 015°38'3 2.7
2015-May-24 03:33N 38°13' E 015°35'1 0.7
2015-May-24 02:33N 38°13' E 015°34'0 0.1
2015-May-24 01:33N 38°13' E 015°34'2 2.3
2015-May-24 00:33N 38°13' E 015°37'0 0.1
2015-May-23 23:33N 38°13' E 015°37'0 0.3
2015-May-23 22:33N 38°13' E 015°37'1 1.3
2015-May-23 21:33N 38°13' E 015°38'0 0.1
2015-May-23 20:33N 38°13' E 015°38'2 2.2
2015-May-23 19:33N 38°13' E 015°35'1 1.2
2015-May-23 18:33N 38°13' E 015°34'2 2.4
2015-May-23 17:33N 38°13' E 015°37'1 1.1
2015-May-23 16:33N 38°13' E 015°38'2 2.1
2015-May-23 15:33N 38°13' E 015°35'1 1.3
2015-May-23 14:33N 38°13' E 015°34'2 1.7
2015-May-23 13:33N 38°13' E 015°36'2 1.8
2015-May-23 12:34N 38°13' E 015°38'3 2.6
2015-May-23 11:34N 38°13' E 015°35'1 0.8
2015-May-23 10:33N 38°13' E 015°34'2 2.3
2015-May-23 09:34N 38°13' E 015°37'1 1.2
2015-May-23 08:33N 38°13' E 015°38'2 2.1
2015-May-23 07:34N 38°13' E 015°35'1 1.3
2015-May-23 06:34N 38°13' E 015°34'2 2.3
2015-May-23 05:34N 38°13' E 015°37'1 1.3
2015-May-23 04:34N 38°13' E 015°38'2 2.4
2015-May-23 03:33N 38°13' E 015°35'1 1.0
2015-May-23 02:34N 38°13' E 015°34'0 0.2
2015-May-23 01:33N 38°13' E 015°34'2 2.0
2015-May-23 00:33N 38°12' E 015°37'0 0.2
2015-May-22 23:34N 38°13' E 015°37'0 0.4
2015-May-22 22:33N 38°12' E 015°36'1 1.3
2015-May-22 21:34N 38°13' E 015°38'0 0.3
2015-May-22 20:33N 38°13' E 015°38'2 1.7
2015-May-22 19:34N 38°13' E 015°36'2 1.9
2015-May-22 18:33N 38°13' E 015°34'2 2.4
2015-May-22 17:33N 38°13' E 015°37'1 1.1
2015-May-22 16:33N 38°13' E 015°38'2 2.5
2015-May-22 15:34N 38°13' E 015°35'1 0.9
2015-May-22 14:34N 38°13' E 015°34'2 2.3
2015-May-22 13:33N 38°12' E 015°37'1 1.3
2015-May-22 12:34N 38°13' E 015°38'2 2.3
2015-May-22 11:33N 38°13' E 015°35'1 1.0
2015-May-22 10:33N 38°13' E 015°34'2 2.3
2015-May-22 09:33N 38°13' E 015°37'1 1.2
2015-May-22 08:33N 38°13' E 015°38'2 2.1
2015-May-22 07:33N 38°13' E 015°35'1 1.3
2015-May-22 06:33N 38°13' E 015°34'2 2.1
2015-May-22 05:34N 38°12' E 015°36'2 1.5
2015-May-22 04:33N 38°13' E 015°38'2 2.3
2015-May-22 03:33N 38°13' E 015°35'1 1.2
2015-May-22 02:34N 38°13' E 015°34'0 0.0
2015-May-22 01:34N 38°13' E 015°34'2 1.8
2015-May-22 00:33N 38°12' E 015°36'1 0.5
2015-May-21 23:33N 38°13' E 015°35'1 1.0
2015-May-21 22:33N 38°13' E 015°37'1 1.2
2015-May-21 21:33N 38°13' E 015°38'0 0.1
2015-May-21 20:33N 38°13' E 015°38'2 1.9
2015-May-21 19:33N 38°13' E 015°36'2 1.6
2015-May-21 18:33N 38°13' E 015°34'2 2.3
2015-May-21 17:33N 38°13' E 015°37'1 1.2
2015-May-21 16:33N 38°13' E 015°38'2 1.7
2015-May-21 15:33N 38°13' E 015°36'2 1.7
2015-May-21 14:33N 38°13' E 015°34'2 2.3
2015-May-21 13:33N 38°13' E 015°37'1 1.3
2015-May-21 12:33N 38°13' E 015°38'3 2.7
2015-May-21 11:33N 38°13' E 015°35'1 0.7
2015-May-21 10:33N 38°13' E 015°34'2 2.3
2015-May-21 09:33N 38°13' E 015°37'1 1.2
2015-May-21 08:33N 38°13' E 015°38'2 2.3
2015-May-21 07:33N 38°13' E 015°35'1 1.0
2015-May-21 06:33N 38°13' E 015°34'2 2.4
2015-May-21 05:33N 38°13' E 015°37'1 1.0
2015-May-21 04:33N 38°13' E 015°38'2 2.4
2015-May-21 03:33N 38°13' E 015°35'1 1.0
2015-May-21 02:33N 38°13' E 015°34'1 0.6
2015-May-21 01:33N 38°13' E 015°35'1 1.4
2015-May-21 00:33N 38°13' E 015°36'0 0.1
2015-May-20 23:33N 38°13' E 015°36'0 0.4
2015-May-20 22:33N 38°13' E 015°37'1 1.2
2015-May-20 21:34N 38°13' E 015°38'0 0.1
2015-May-20 20:33N 38°13' E 015°38'2 1.9
2015-May-20 19:33N 38°13' E 015°36'2 1.6
2015-May-20 18:34N 38°13' E 015°34'2 2.4
2015-May-20 17:33N 38°13' E 015°37'1 1.1
2015-May-20 16:33N 38°13' E 015°38'2 2.2
2015-May-20 15:33N 38°13' E 015°35'2 0.0
2015-May-18 19:19N 38°13' E 015°38'0 0.0
2015-May-18 16:33N 38°13' E 015°38'0 0.0
2015-May-18 15:22N 38°13' E 015°38'0 0.0
2015-May-18 12:33N 38°13' E 015°38'1 1.2
2015-May-18 11:29N 38°13' E 015°36'1 0.4
2015-May-18 08:33N 38°13' E 015°38'1 0.7
2015-May-18 07:26N 38°14' E 015°37'1 0.2
2015-May-18 04:20N 38°13' E 015°38'0 0.2
2015-May-18 03:24N 38°13' E 015°38'0 0.1
2015-May-18 02:12N 38°14' E 015°38'0 0.1
2015-May-18 00:20N 38°13' E 015°38'0 0.0
2015-May-17 23:12N 38°13' E 015°38'0 0.0
2015-May-17 20:33N 38°13' E 015°38'1 0.7
2015-May-17 19:26N 38°13' E 015°37'0 0.3
2015-May-17 18:03N 38°14' E 015°38'1 0.3
2015-May-17 16:18N 38°13' E 015°37'1 1.3
2015-May-17 15:31N 38°13' E 015°36'1 0.2
2015-May-17 07:20N 38°13' E 015°38'0 0.0
2015-May-17 04:20N 38°13' E 015°38'0 0.1
2015-May-17 03:24N 38°13' E 015°38'0 0.2
2015-May-17 02:15N 38°14' E 015°38'0 0.4
2015-May-17 01:05N 38°13' E 015°37'0 0.2
2015-May-16 22:32N 38°13' E 015°37'1 0.6
2015-May-16 21:31N 38°13' E 015°38'0 0.1
2015-May-16 20:33N 38°13' E 015°38'1 0.4
2015-May-16 19:25N 38°13' E 015°37'1 0.2
2015-May-16 16:33N 38°13' E 015°38'0 0.1
2015-May-16 15:21N 38°13' E 015°38'0 0.0
2015-May-16 12:33N 38°13' E 015°38'1 0.6
2015-May-16 11:25N 38°13' E 015°37'1 0.2
2015-May-16 08:32N 38°13' E 015°38'0 0.0
2015-May-15 16:34N 38°13' E 015°38'0 0.2
2015-May-15 15:22N 38°13' E 015°38'1 0.1
2015-May-15 06:07N 38°14' E 015°37'1 0.1
2015-May-14 16:33N 38°13' E 015°38'0 0.0
2015-May-14 15:19N 38°13' E 015°38'0 0.0
2015-May-14 08:23N 38°13' E 015°38'0 0.1
2015-May-14 07:11N 38°13' E 015°38'  

Dump ship's entire track history